createdAt,value
2019-02-09T00:00:40.493Z,9.60
2019-02-09T00:03:08.029Z,9.60
2019-02-09T00:05:35.461Z,9.60
2019-02-09T00:08:05.389Z,9.50
2019-02-09T00:10:33.623Z,9.50
2019-02-09T00:13:01.085Z,9.50
2019-02-09T00:15:28.544Z,9.40
2019-02-09T00:17:56.029Z,9.40
2019-02-09T00:20:23.474Z,9.40
2019-02-09T00:22:50.935Z,9.40
2019-02-09T00:25:18.394Z,9.30
2019-02-09T00:27:47.498Z,9.20
2019-02-09T00:30:13.338Z,9.20
2019-02-09T00:32:40.786Z,9.20
2019-02-09T00:35:09.029Z,9.20
2019-02-09T00:37:36.447Z,9.20
2019-02-09T00:40:04.023Z,9.20
2019-02-09T00:42:32.241Z,9.30
2019-02-09T00:44:59.745Z,9.20
2019-02-09T00:47:27.333Z,9.20
2019-02-09T00:49:55.554Z,9.30
2019-02-09T00:52:23.008Z,9.30
2019-02-09T00:54:50.465Z,9.20
2019-02-09T00:57:17.904Z,9.20
2019-02-09T00:59:53.798Z,9.20
2019-02-09T01:02:13.718Z,9.10
2019-02-09T01:04:41.277Z,9.20
2019-02-09T01:07:08.739Z,9.20
2019-02-09T01:09:36.195Z,9.20
2019-02-09T01:12:04.467Z,9.20
2019-02-09T01:14:31.948Z,9.20
2019-02-09T01:16:59.573Z,9.20
2019-02-09T01:19:26.991Z,9.20
2019-02-09T01:21:54.489Z,9.20
2019-02-09T01:24:21.957Z,9.20
2019-02-09T01:26:49.434Z,9.20
2019-02-09T01:29:16.891Z,9.10
2019-02-09T01:31:44.344Z,9.10
2019-02-09T01:34:11.802Z,9.10
2019-02-09T01:36:39.254Z,9.10
2019-02-09T01:39:06.708Z,9.10
2019-02-09T01:41:34.168Z,9.00
2019-02-09T01:44:02.385Z,9.00
2019-02-09T01:46:29.870Z,9.00
2019-02-09T01:48:57.329Z,9.00
2019-02-09T01:51:24.769Z,9.00
2019-02-09T01:53:52.223Z,9.00
2019-02-09T01:56:19.715Z,9.00
2019-02-09T01:58:47.279Z,9.00
2019-02-09T02:01:14.803Z,9.00
2019-02-09T02:03:42.307Z,9.00
2019-02-09T02:06:09.762Z,9.00
2019-02-09T02:08:37.339Z,9.00
2019-02-09T02:11:04.797Z,9.00
2019-02-09T02:13:32.766Z,8.90
2019-02-09T02:16:00.336Z,8.90
2019-02-09T02:18:27.792Z,8.90
2019-02-09T02:20:55.248Z,8.90
2019-02-09T02:23:22.719Z,8.80
2019-02-09T02:25:50.168Z,8.90
2019-02-09T02:28:17.632Z,8.80
2019-02-09T02:30:45.099Z,8.80
2019-02-09T02:33:12.551Z,8.70
2019-02-09T02:35:40.016Z,8.70
2019-02-09T02:38:07.471Z,8.70
2019-02-09T02:40:34.938Z,8.70
2019-02-09T02:43:02.407Z,8.60
2019-02-09T02:45:29.857Z,8.60
2019-02-09T02:47:57.336Z,8.60
2019-02-09T02:50:24.775Z,8.60
2019-02-09T02:52:52.693Z,8.60
2019-02-09T02:55:22.789Z,8.60
2019-02-09T02:57:51.065Z,8.50
2019-02-09T03:00:31.672Z,8.50
2019-02-09T03:02:50.488Z,8.50
2019-02-09T03:05:18.049Z,8.40
2019-02-09T03:07:45.628Z,8.50
2019-02-09T03:10:13.091Z,8.50
2019-02-09T03:12:40.529Z,8.50
2019-02-09T03:15:08.000Z,8.50
2019-02-09T03:17:35.451Z,8.60
2019-02-09T03:20:04.464Z,8.50
2019-02-09T03:22:31.933Z,8.50
2019-02-09T03:24:59.488Z,8.50
2019-02-09T03:27:26.942Z,8.40
2019-02-09T03:29:54.568Z,8.40
2019-02-09T03:32:22.791Z,8.40
2019-02-09T03:34:50.242Z,8.40
2019-02-09T03:37:17.709Z,8.40
2019-02-09T03:39:45.235Z,8.40
2019-02-09T03:42:12.743Z,8.30
2019-02-09T03:44:40.193Z,8.30
2019-02-09T03:47:07.643Z,8.30
2019-02-09T03:49:35.129Z,8.30
2019-02-09T03:52:02.702Z,8.30
2019-02-09T03:54:30.261Z,8.30
2019-02-09T03:56:57.835Z,8.30
2019-02-09T03:59:25.396Z,8.30
2019-02-09T04:01:52.845Z,8.20
2019-02-09T04:04:20.302Z,8.20
2019-02-09T04:06:47.757Z,8.20
2019-02-09T04:09:15.226Z,8.20
2019-02-09T04:11:42.697Z,8.20
2019-02-09T04:14:10.263Z,8.20
2019-02-09T04:16:37.726Z,8.20
2019-02-09T04:19:05.172Z,8.20
2019-02-09T04:21:32.621Z,8.20
2019-02-09T04:24:00.111Z,8.30
2019-02-09T04:26:27.578Z,8.30
2019-02-09T04:28:55.057Z,8.30
2019-02-09T04:31:22.599Z,8.40
2019-02-09T04:33:50.155Z,8.40
2019-02-09T04:36:17.622Z,8.40
2019-02-09T04:38:45.073Z,8.40
2019-02-09T04:41:12.526Z,8.40
2019-02-09T04:43:40.015Z,8.40
2019-02-09T04:46:07.472Z,8.40
2019-02-09T04:48:34.915Z,8.40
2019-02-09T04:51:02.372Z,8.30
2019-02-09T04:53:29.852Z,8.30
2019-02-09T04:55:57.310Z,8.30
2019-02-09T04:58:24.878Z,8.30
2019-02-09T05:00:52.329Z,8.20
2019-02-09T05:03:19.803Z,8.20
2019-02-09T05:05:47.257Z,8.20
2019-02-09T05:08:14.720Z,8.10
2019-02-09T05:10:42.192Z,8.10
2019-02-09T05:13:09.761Z,8.10
2019-02-09T05:15:37.326Z,8.10
2019-02-09T05:18:04.779Z,8.10
2019-02-09T05:20:32.238Z,8.00
2019-02-09T05:22:59.708Z,8.00
2019-02-09T05:25:27.171Z,8.00
2019-02-09T05:27:54.634Z,8.00
2019-02-09T05:30:23.874Z,8.00
2019-02-09T05:32:52.266Z,8.00
2019-02-09T05:35:19.772Z,7.90
2019-02-09T05:37:47.227Z,8.00
2019-02-09T05:40:17.462Z,7.90
2019-02-09T05:42:44.927Z,7.90
2019-02-09T05:45:17.328Z,7.80
2019-02-09T05:47:45.558Z,7.90
2019-02-09T05:50:13.681Z,7.90
2019-02-09T05:52:41.946Z,7.90
2019-02-09T05:55:09.502Z,7.90
2019-02-09T05:57:36.978Z,7.90
2019-02-09T06:00:05.833Z,7.90
2019-02-09T06:02:33.320Z,7.90
2019-02-09T06:05:00.773Z,7.90
2019-02-09T06:07:28.241Z,7.90
2019-02-09T06:09:55.798Z,7.90
2019-02-09T06:12:23.259Z,7.90
2019-02-09T06:14:50.709Z,7.80
2019-02-09T06:17:18.166Z,7.80
2019-02-09T06:19:45.642Z,7.80
2019-02-09T06:22:13.192Z,7.80
2019-02-09T06:24:40.657Z,7.90
2019-02-09T06:27:08.105Z,7.90
2019-02-09T06:29:35.594Z,7.90
2019-02-09T06:32:04.561Z,7.90
2019-02-09T06:34:32.045Z,7.80
2019-02-09T06:36:59.489Z,7.80
2019-02-09T06:39:26.977Z,7.90
2019-02-09T06:41:54.437Z,7.90
2019-02-09T06:44:21.988Z,7.90
2019-02-09T06:46:49.568Z,7.90
2019-02-09T06:49:17.015Z,7.90
2019-02-09T06:51:44.490Z,7.90
2019-02-09T06:54:12.038Z,7.90
2019-02-09T06:56:39.525Z,7.80
2019-02-09T06:59:06.978Z,7.80
2019-02-09T07:01:34.424Z,7.80
2019-02-09T07:04:01.906Z,7.70
2019-02-09T07:06:29.399Z,7.80
2019-02-09T07:08:57.631Z,7.80
2019-02-09T07:11:25.104Z,7.70
2019-02-09T07:13:52.666Z,7.70
2019-02-09T07:16:20.108Z,7.70
2019-02-09T07:18:47.643Z,7.80
2019-02-09T07:21:15.094Z,7.70
2019-02-09T07:23:43.299Z,7.80
2019-02-09T07:26:10.898Z,7.70
2019-02-09T07:28:38.377Z,7.80
2019-02-09T07:31:05.848Z,7.80
2019-02-09T07:33:34.095Z,7.80
2019-02-09T07:36:01.642Z,7.80
2019-02-09T07:38:29.160Z,7.80
2019-02-09T07:40:56.689Z,7.80
2019-02-09T07:43:25.216Z,7.80
2019-02-09T07:45:53.445Z,7.80
2019-02-09T07:48:20.901Z,7.80
2019-02-09T07:50:48.361Z,7.90
2019-02-09T07:53:15.829Z,7.90
2019-02-09T07:55:43.287Z,7.90
2019-02-09T07:58:10.869Z,7.90
2019-02-09T08:00:38.334Z,7.90
2019-02-09T08:03:06.560Z,8.00
2019-02-09T08:05:34.028Z,8.00
2019-02-09T08:08:01.484Z,8.00
2019-02-09T08:10:31.406Z,8.10
2019-02-09T08:12:58.877Z,8.10
2019-02-09T08:15:26.413Z,8.00
2019-02-09T08:17:54.653Z,8.10
2019-02-09T08:20:22.895Z,8.10
2019-02-09T08:22:50.361Z,8.20
2019-02-09T08:25:17.867Z,8.20
2019-02-09T08:27:45.407Z,8.30
2019-02-09T08:30:13.703Z,8.40
2019-02-09T08:32:41.273Z,8.30
2019-02-09T08:35:08.727Z,8.30
2019-02-09T08:37:36.187Z,8.30
2019-02-09T08:40:04.776Z,8.30
2019-02-09T08:42:32.228Z,8.30
2019-02-09T08:44:59.691Z,8.40
2019-02-09T08:47:27.265Z,8.40
2019-02-09T08:49:54.828Z,8.50
2019-02-09T08:52:22.286Z,8.40
2019-02-09T08:54:49.856Z,8.40
2019-02-09T08:57:18.098Z,8.50
2019-02-09T08:59:45.552Z,8.40
2019-02-09T09:02:20.138Z,8.50
2019-02-09T09:04:40.513Z,8.60
2019-02-09T09:07:08.086Z,8.60
2019-02-09T09:09:35.554Z,8.60
2019-02-09T09:12:03.931Z,8.60
2019-02-09T09:14:32.180Z,8.70
2019-02-09T09:16:59.669Z,8.70
2019-02-09T09:19:27.126Z,8.80
2019-02-09T09:21:54.583Z,8.70
2019-02-09T09:24:22.095Z,8.70
2019-02-09T09:26:49.526Z,8.80
2019-02-09T09:29:17.080Z,8.80
2019-02-09T09:31:44.564Z,8.80
2019-02-09T09:34:12.808Z,8.90
2019-02-09T09:36:40.302Z,8.90
2019-02-09T09:39:07.754Z,8.90
2019-02-09T09:41:35.309Z,8.90
2019-02-09T09:44:03.798Z,8.90
2019-02-09T09:46:32.011Z,8.90
2019-02-09T09:48:59.565Z,8.90
2019-02-09T09:51:27.820Z,9.00
2019-02-09T09:53:55.282Z,9.00
2019-02-09T09:56:22.750Z,9.10
2019-02-09T09:58:50.210Z,9.10
2019-02-09T10:01:18.451Z,9.10
2019-02-09T10:03:45.903Z,9.10
2019-02-09T10:06:14.223Z,9.20
2019-02-09T10:08:41.677Z,9.10
2019-02-09T10:11:09.135Z,9.20
2019-02-09T10:13:36.706Z,9.20
2019-02-09T10:16:04.153Z,9.20
2019-02-09T10:18:31.633Z,9.30
2019-02-09T10:20:59.189Z,9.30
2019-02-09T10:23:26.658Z,9.40
2019-02-09T10:25:54.142Z,9.40
2019-02-09T10:28:22.396Z,9.40
2019-02-09T10:33:28.239Z,9.30
2019-02-09T10:35:55.721Z,9.30
2019-02-09T10:38:23.178Z,9.30
2019-02-09T10:40:50.662Z,9.40
2019-02-09T10:43:18.148Z,9.30
2019-02-09T10:45:46.438Z,9.30
2019-02-09T10:48:14.694Z,9.30
2019-02-09T10:50:42.152Z,9.30
2019-02-09T10:53:09.611Z,9.20
2019-02-09T10:55:37.093Z,9.30
2019-02-09T10:58:05.327Z,9.40
2019-02-09T11:00:42.942Z,9.40
2019-02-09T11:03:10.393Z,9.50
2019-02-09T11:05:37.852Z,9.80
2019-02-09T11:08:05.316Z,9.80
2019-02-09T11:10:32.779Z,9.70
2019-02-09T11:13:00.246Z,9.80
2019-02-09T11:15:27.720Z,9.90
2019-02-09T11:17:55.289Z,9.80
2019-02-09T11:20:24.265Z,9.60
2019-02-09T11:22:51.727Z,9.60
2019-02-09T11:25:39.380Z,9.50
2019-02-09T11:28:07.613Z,9.50
2019-02-09T11:30:35.060Z,9.50
2019-02-09T11:33:02.768Z,9.40
2019-02-09T11:35:32.221Z,9.50
2019-02-09T11:37:59.029Z,9.50
2019-02-09T11:40:28.954Z,9.50
2019-02-09T11:42:57.226Z,9.50
2019-02-09T11:45:25.582Z,9.40
2019-02-09T11:47:53.177Z,9.50
2019-02-09T11:50:20.633Z,9.50
2019-02-09T11:52:48.094Z,9.50
2019-02-09T11:55:15.963Z,9.40
2019-02-09T11:57:43.198Z,9.50
2019-02-09T12:00:22.232Z,9.50
2019-02-09T12:02:49.696Z,9.60
2019-02-09T12:05:17.156Z,9.80
2019-02-09T12:07:44.629Z,9.80
2019-02-09T12:10:16.655Z,9.80
2019-02-09T12:12:44.161Z,9.80
2019-02-09T12:15:15.509Z,9.70
2019-02-09T12:17:42.973Z,9.70
2019-02-09T12:20:11.951Z,9.70
2019-02-09T12:22:39.408Z,9.70
2019-02-09T12:25:06.866Z,9.60
2019-02-09T12:27:34.330Z,9.60
2019-02-09T12:30:01.793Z,9.60
2019-02-09T12:32:29.268Z,9.60
2019-02-09T12:34:56.835Z,9.60
2019-02-09T12:37:24.395Z,9.60
2019-02-09T12:39:51.847Z,9.60
2019-02-09T12:42:19.323Z,9.60
2019-02-09T12:44:46.778Z,9.50
2019-02-09T12:47:14.350Z,9.60
2019-02-09T12:49:41.817Z,9.70
2019-02-09T12:52:09.366Z,9.70
2019-02-09T12:54:36.939Z,9.60
2019-02-09T12:57:04.397Z,9.70
2019-02-09T12:59:31.865Z,9.70
2019-02-09T13:01:59.342Z,9.80
2019-02-09T13:04:26.883Z,9.70
2019-02-09T13:06:54.329Z,9.60
2019-02-09T13:09:21.806Z,9.60
2019-02-09T13:11:49.265Z,9.60
2019-02-09T13:14:16.845Z,9.50
2019-02-09T13:16:44.299Z,9.60
2019-02-09T13:19:11.757Z,9.50
2019-02-09T13:21:39.345Z,9.60
2019-02-09T13:24:07.693Z,9.70
2019-02-09T13:26:35.171Z,9.60
2019-02-09T13:29:02.629Z,9.70
2019-02-09T13:31:30.112Z,9.70
2019-02-09T13:33:58.370Z,9.60
2019-02-09T13:36:25.834Z,9.60
2019-02-09T13:38:53.402Z,9.60
2019-02-09T13:41:20.863Z,9.60
2019-02-09T13:43:48.341Z,9.60
2019-02-09T13:46:15.793Z,9.50
2019-02-09T13:48:43.265Z,9.50
2019-02-09T13:51:10.713Z,9.40
2019-02-09T13:53:38.182Z,9.30
2019-02-09T13:56:05.684Z,9.30
2019-02-09T13:58:33.149Z,9.20
2019-02-09T14:01:00.636Z,9.20
2019-02-09T14:03:28.103Z,9.10
2019-02-09T14:05:55.566Z,9.10
2019-02-09T14:08:23.022Z,9.00
2019-02-09T14:10:50.482Z,9.00
2019-02-09T14:13:18.062Z,9.00
2019-02-09T14:15:45.614Z,9.00
2019-02-09T14:18:13.075Z,9.00
2019-02-09T14:20:40.553Z,9.00
2019-02-09T14:23:08.011Z,9.00
2019-02-09T14:25:35.483Z,9.00
2019-02-09T14:28:03.545Z,9.00
2019-02-09T14:30:31.891Z,9.00
2019-02-09T14:32:59.363Z,9.00
2019-02-09T14:35:26.840Z,9.00
2019-02-09T14:37:54.316Z,9.10
2019-02-09T14:40:29.601Z,9.10
2019-02-09T14:42:57.066Z,9.10
2019-02-09T14:45:27.933Z,9.10
2019-02-09T14:47:55.394Z,9.10
2019-02-09T14:50:22.844Z,9.10
2019-02-09T14:52:50.297Z,9.10
2019-02-09T14:55:21.394Z,9.20
2019-02-09T14:57:48.857Z,9.20
2019-02-09T15:00:22.824Z,9.20
2019-02-09T15:02:53.846Z,9.20
2019-02-09T15:05:17.769Z,9.20
2019-02-09T15:07:45.234Z,9.20
2019-02-09T15:10:12.702Z,9.20
2019-02-09T15:12:40.221Z,9.20
2019-02-09T15:15:08.566Z,9.20
2019-02-09T15:17:36.026Z,9.20
2019-02-09T15:20:13.505Z,9.20
2019-02-09T15:22:41.063Z,9.20
2019-02-09T15:25:08.512Z,9.20
2019-02-09T15:27:36.029Z,9.20
2019-02-09T15:30:03.782Z,9.20
2019-02-09T15:32:31.425Z,9.10
2019-02-09T15:34:59.002Z,9.10
2019-02-09T15:37:26.448Z,9.00
2019-02-09T15:39:54.030Z,9.00
2019-02-09T15:42:21.494Z,9.00
2019-02-09T15:44:49.050Z,8.90
2019-02-09T15:47:16.510Z,8.90
2019-02-09T15:49:44.068Z,8.90
2019-02-09T15:52:11.512Z,8.90
2019-02-09T15:54:38.987Z,8.90
2019-02-09T15:57:06.445Z,8.90
2019-02-09T15:59:33.913Z,8.80
2019-02-09T16:02:01.376Z,8.80
2019-02-09T16:04:28.832Z,8.80
2019-02-09T16:06:56.285Z,8.80
2019-02-09T16:09:23.748Z,8.80
2019-02-09T16:11:51.197Z,8.70
2019-02-09T16:14:18.681Z,8.70
2019-02-09T16:16:46.133Z,8.70
2019-02-09T16:19:13.618Z,8.70
2019-02-09T16:21:42.585Z,8.70
2019-02-09T16:24:10.067Z,8.70
2019-02-09T16:26:37.534Z,8.70
2019-02-09T16:29:04.969Z,8.70
2019-02-09T16:31:32.446Z,8.70
2019-02-09T16:34:00.352Z,8.70
2019-02-09T16:36:28.604Z,8.70
2019-02-09T16:38:56.064Z,8.70
2019-02-09T16:41:23.578Z,8.70
2019-02-09T16:43:51.086Z,8.70
2019-02-09T16:46:18.662Z,8.80
2019-02-09T16:48:46.125Z,8.80
2019-02-09T16:51:13.612Z,8.80
2019-02-09T16:53:41.049Z,8.80
2019-02-09T16:56:08.500Z,8.80
2019-02-09T16:58:36.143Z,8.80
2019-02-09T17:01:05.362Z,8.80
2019-02-09T17:03:33.744Z,8.80
2019-02-09T17:06:01.197Z,8.80
2019-02-09T17:08:28.660Z,8.80
2019-02-09T17:10:56.234Z,8.80
2019-02-09T17:13:23.698Z,8.90
2019-02-09T17:15:51.165Z,8.80
2019-02-09T17:18:18.726Z,8.90
2019-02-09T17:20:46.211Z,8.90
2019-02-09T17:23:13.669Z,8.80
2019-02-09T17:25:41.120Z,8.80
2019-02-09T17:28:10.108Z,8.70
2019-02-09T17:30:37.567Z,8.70
2019-02-09T17:33:05.137Z,8.70
2019-02-09T17:35:32.584Z,8.70
2019-02-09T17:38:00.054Z,8.60
2019-02-09T17:40:28.361Z,8.70
2019-02-09T17:42:56.603Z,8.70
2019-02-09T17:45:24.791Z,8.70
2019-02-09T17:47:52.243Z,8.70
2019-02-09T17:50:19.698Z,8.70
2019-02-09T17:52:47.156Z,8.70
2019-02-09T17:55:14.640Z,8.70
2019-02-09T17:57:42.112Z,8.70
2019-02-09T18:00:17.773Z,8.70
2019-02-09T18:02:46.733Z,8.70
2019-02-09T18:05:14.211Z,8.70
2019-02-09T18:07:41.683Z,8.70
2019-02-09T18:10:12.720Z,8.70
2019-02-09T18:12:40.279Z,8.70
2019-02-09T18:15:07.745Z,8.70
2019-02-09T18:17:35.310Z,8.70
2019-02-09T18:20:03.788Z,8.70
2019-02-09T18:22:31.340Z,8.70
2019-02-09T18:24:58.798Z,8.70
2019-02-09T18:27:26.284Z,8.70
2019-02-09T18:29:53.748Z,8.70
2019-02-09T18:32:21.970Z,8.70
2019-02-09T18:34:55.998Z,8.70
2019-02-09T18:37:16.950Z,8.70
2019-02-09T18:39:44.418Z,8.70
2019-02-09T18:42:11.877Z,8.70
2019-02-09T18:44:39.352Z,8.70
2019-02-09T18:47:07.588Z,8.70
2019-02-09T18:49:35.049Z,8.70
2019-02-09T18:52:02.529Z,8.70
2019-02-09T18:54:30.112Z,8.70
2019-02-09T18:56:57.651Z,8.70
2019-02-09T18:59:25.129Z,8.80
2019-02-09T19:01:53.847Z,8.80
2019-02-09T19:04:22.073Z,8.80
2019-02-09T19:06:49.533Z,8.80
2019-02-09T19:09:16.986Z,8.80
2019-02-09T19:11:44.442Z,8.80
2019-02-09T19:14:11.910Z,8.80
2019-02-09T19:16:39.380Z,8.80
2019-02-09T19:19:06.905Z,8.80
2019-02-09T19:21:35.120Z,8.90
2019-02-09T19:24:03.945Z,8.90
2019-02-09T19:26:31.499Z,8.90
2019-02-09T19:28:58.952Z,8.90
2019-02-09T19:31:26.403Z,8.90
2019-02-09T19:33:53.884Z,8.90
2019-02-09T19:36:21.450Z,8.90
2019-02-09T19:38:48.917Z,8.90
2019-02-09T19:41:16.378Z,8.90
2019-02-09T19:43:43.897Z,8.90
2019-02-09T19:46:11.399Z,8.90
2019-02-09T19:48:38.866Z,8.90
2019-02-09T19:51:06.318Z,8.90
2019-02-09T19:53:33.775Z,8.90
2019-02-09T19:56:01.349Z,9.00
2019-02-09T19:58:28.796Z,9.00
2019-02-09T20:00:56.263Z,8.90
2019-02-09T20:03:23.727Z,8.90
2019-02-09T20:05:51.281Z,8.90
2019-02-09T20:08:18.748Z,8.90
2019-02-09T20:10:46.216Z,8.90
2019-02-09T20:13:13.677Z,8.90
2019-02-09T20:15:41.144Z,8.90
2019-02-09T20:18:08.715Z,8.90
2019-02-09T20:20:36.998Z,8.90
2019-02-09T20:23:04.448Z,8.90
2019-02-09T20:25:33.233Z,8.90
2019-02-09T20:28:00.791Z,9.00
2019-02-09T20:30:44.916Z,9.00
2019-02-09T20:33:12.386Z,8.90
2019-02-09T20:35:39.845Z,9.00
2019-02-09T20:38:07.301Z,9.00
2019-02-09T20:40:38.313Z,9.00
2019-02-09T20:43:06.538Z,9.00
2019-02-09T20:45:34.003Z,9.00
2019-02-09T20:48:01.458Z,9.00
2019-02-09T20:50:28.918Z,9.00
2019-02-09T20:52:56.378Z,9.00
2019-02-09T20:55:23.838Z,9.00
2019-02-09T20:57:51.286Z,9.00
2019-02-09T21:00:21.140Z,9.00
2019-02-09T21:02:48.691Z,9.00
2019-02-09T21:05:16.178Z,9.10
2019-02-09T21:07:44.826Z,9.10
2019-02-09T21:10:17.498Z,9.10
2019-02-09T21:12:44.969Z,9.10
2019-02-09T21:15:13.107Z,9.10
2019-02-09T21:17:42.420Z,9.10
2019-02-09T21:20:10.845Z,9.20
2019-02-09T21:22:38.315Z,9.20
2019-02-09T21:25:05.893Z,9.20
2019-02-09T21:27:33.989Z,9.20
2019-02-09T21:30:00.915Z,9.20
2019-02-09T21:32:28.375Z,9.20
2019-02-09T21:34:55.832Z,9.20
2019-02-09T21:37:23.387Z,9.20
2019-02-09T21:39:50.858Z,9.20
2019-02-09T21:42:18.461Z,9.20
2019-02-09T21:44:46.734Z,9.20
2019-02-09T21:47:14.285Z,9.20
2019-02-09T21:49:42.143Z,9.20
2019-02-09T21:52:09.583Z,9.20
2019-02-09T21:54:37.047Z,9.20
2019-02-09T21:57:04.508Z,9.20
2019-02-09T21:59:31.960Z,9.20
2019-02-09T22:01:59.421Z,9.20
2019-02-09T22:04:26.880Z,9.20
2019-02-09T22:06:54.337Z,9.20
2019-02-09T22:09:21.806Z,9.20
2019-02-09T22:11:49.279Z,9.10
2019-02-09T22:14:16.820Z,9.10
2019-02-09T22:16:45.050Z,9.10
2019-02-09T22:19:12.502Z,9.10
2019-02-09T22:21:40.285Z,9.10
2019-02-09T22:24:07.553Z,9.10
2019-02-09T22:26:35.849Z,9.00
2019-02-09T22:29:04.514Z,9.00
2019-02-09T22:31:31.991Z,9.00
2019-02-09T22:34:00.438Z,9.00
2019-02-09T22:36:36.829Z,8.90
2019-02-09T22:38:56.698Z,8.90
2019-02-09T22:41:24.176Z,9.00
2019-02-09T22:43:52.438Z,9.00
2019-02-09T22:46:19.909Z,9.00
2019-02-09T22:48:47.475Z,9.00
2019-02-09T22:51:14.927Z,9.00
2019-02-09T22:53:42.494Z,9.00
2019-02-09T22:56:09.943Z,8.90
2019-02-09T22:58:37.415Z,8.90
2019-02-09T23:01:08.397Z,8.90
2019-02-09T23:03:38.178Z,8.90
2019-02-09T23:09:03.601Z,8.90
2019-02-09T23:11:31.056Z,8.90
2019-02-09T23:14:00.053Z,8.80
2019-02-09T23:16:27.505Z,8.80
2019-02-09T23:18:54.963Z,8.80
2019-02-09T23:21:22.435Z,8.80
2019-02-09T23:23:49.877Z,8.80
2019-02-09T23:26:17.341Z,8.80
2019-02-09T23:28:44.813Z,8.80
2019-02-09T23:31:12.283Z,8.80
2019-02-09T23:33:39.730Z,8.80
2019-02-09T23:36:07.185Z,8.80
2019-02-09T23:38:34.644Z,8.80
2019-02-09T23:41:02.099Z,8.80
2019-02-09T23:43:29.554Z,8.80
2019-02-09T23:45:57.054Z,8.80
2019-02-09T23:48:24.509Z,8.80
2019-02-09T23:50:51.959Z,8.80
2019-02-09T23:53:19.428Z,8.80
2019-02-09T23:55:46.863Z,8.80
2019-02-09T23:58:14.321Z,8.80
